Main page
METAR-TAF:

METAR-TAF

Airports :

Midway International Airport

Chicago, Illinois, United States

latitude: 41-47-03N, longitude: 087-45-19W, elevation: 617 ft

Current weather observation

The report was made 1 hour and 6 minutes ago, at 02:53 UTC
Wind 6 mph from the West
Temperature 70°F
Humidity 35%
Pressure 29.87 in. Hg
Visibility: 10 miles
Clear sky

METAR: KMDW 230253Z 27005KT 10SM CLR 21/05 A2987 RMK AO2 SLP110 T02060050 51019

Time: 22:59 (03:59 UTC)

Forecast

The report was made 59 minutes ago, at 03:00 UTC
Forecast valid from 23 at 03 UTC to 24 at 06 UTC
Wind 7 mph from the West/Southwest
Visibility: 6 miles
Clear sky
From 23 at 2000 UTC
Wind 10 mph from the East
Visibility: 6 miles
Few clouds at a height of 7000 ft
From 24 at 0300 UTC
Wind 6 mph from the South/Southeast
Visibility: 6 miles
Few clouds at a height of 15000 ft

TAF: KMDW 230300Z 2303/2406 24006KT P6SM SKC FM232000 09009KT P6SM FEW070 FM240300 15005KT P6SM FEW150

Weather observations and forecasts of more than 4000 airports (METAR and TAF reports).

The available stations are represented by yellow and red dots on the map.

Hover mouse over dot to see the name of the station.

Then click to see weather observations and forecasts.

To change the map : click on the green buttons with a black cross to zoom in, on the green button with a dash to zoom out, or on the green arrows for adjacent maps.


METAR-TAF: